createdAt,value
2018-12-19T00:00:23.487Z,75.60
2018-12-19T00:02:49.854Z,75.40
2018-12-19T00:05:16.138Z,74.50
2018-12-19T00:07:42.415Z,74.80
2018-12-19T00:10:08.716Z,75.30
2018-12-19T00:12:35.000Z,75.10
2018-12-19T00:15:03.122Z,76.00
2018-12-19T00:17:29.428Z,76.70
2018-12-19T00:19:55.734Z,76.90
2018-12-19T00:22:21.977Z,77.00
2018-12-19T00:24:48.243Z,76.80
2018-12-19T00:27:14.500Z,77.20
2018-12-19T00:29:40.750Z,77.60
2018-12-19T00:32:07.037Z,77.90
2018-12-19T00:34:33.328Z,78.10
2018-12-19T00:36:59.644Z,77.70
2018-12-19T00:39:25.953Z,78.20
2018-12-19T00:41:52.216Z,78.80
2018-12-19T00:44:18.470Z,79.50
2018-12-19T00:46:44.804Z,79.50
2018-12-19T00:49:11.083Z,80.50
2018-12-19T00:51:37.394Z,81.80
2018-12-19T00:54:03.711Z,81.70
2018-12-19T00:56:30.034Z,81.90
2018-12-19T00:58:56.308Z,81.70
2018-12-19T01:01:22.644Z,81.10
2018-12-19T01:03:49.000Z,80.90
2018-12-19T01:06:15.522Z,81.50
2018-12-19T01:08:41.955Z,81.80
2018-12-19T01:11:08.217Z,81.90
2018-12-19T01:13:34.746Z,81.50
2018-12-19T01:16:01.008Z,81.20
2018-12-19T01:18:27.267Z,81.70
2018-12-19T01:20:53.651Z,81.70
2018-12-19T01:23:19.916Z,81.70
2018-12-19T01:25:46.200Z,82.10
2018-12-19T01:28:12.488Z,82.90
2018-12-19T01:30:38.770Z,83.20
2018-12-19T01:33:05.111Z,83.10
2018-12-19T01:35:31.407Z,82.90
2018-12-19T01:37:57.672Z,83.00
2018-12-19T01:40:23.975Z,83.50
2018-12-19T01:42:50.269Z,83.90
2018-12-19T01:45:16.581Z,83.30
2018-12-19T01:47:42.993Z,83.30
2018-12-19T01:50:09.262Z,83.40
2018-12-19T01:52:35.534Z,83.30
2018-12-19T01:55:01.964Z,83.10
2018-12-19T01:57:28.238Z,83.40
2018-12-19T01:59:54.510Z,83.40
2018-12-19T02:02:20.811Z,83.80
2018-12-19T02:04:47.128Z,83.60
2018-12-19T02:07:13.477Z,83.50
2018-12-19T02:09:39.783Z,83.60
2018-12-19T02:12:06.096Z,83.90
2018-12-19T02:14:32.423Z,84.40
2018-12-19T02:16:58.717Z,84.90
2018-12-19T02:19:24.992Z,85.30
2018-12-19T02:21:51.257Z,85.70
2018-12-19T02:24:17.592Z,85.70
2018-12-19T02:26:43.894Z,86.10
2018-12-19T02:29:10.164Z,85.80
2018-12-19T02:31:36.479Z,85.60
2018-12-19T02:34:02.806Z,86.10
2018-12-19T02:36:29.139Z,85.90
2018-12-19T02:38:55.471Z,86.40
2018-12-19T02:41:21.825Z,86.30
2018-12-19T02:43:48.084Z,86.30
2018-12-19T02:46:14.355Z,86.50
2018-12-19T02:48:40.640Z,86.30
2018-12-19T02:51:06.914Z,86.10
2018-12-19T02:53:33.186Z,86.40
2018-12-19T02:55:59.466Z,86.50
2018-12-19T02:58:25.727Z,86.30
2018-12-19T03:00:51.956Z,86.10
2018-12-19T03:03:18.258Z,86.10
2018-12-19T03:05:44.513Z,86.50
2018-12-19T03:08:10.849Z,86.50
2018-12-19T03:10:37.202Z,86.60
2018-12-19T03:13:03.548Z,86.50
2018-12-19T03:15:29.846Z,86.40
2018-12-19T03:17:56.116Z,86.30
2018-12-19T03:20:22.351Z,86.60
2018-12-19T03:22:48.660Z,86.50
2018-12-19T03:25:14.988Z,86.80
2018-12-19T03:27:41.290Z,86.80
2018-12-19T03:30:07.632Z,86.90
2018-12-19T03:32:33.929Z,87.20
2018-12-19T03:35:00.261Z,87.00
2018-12-19T03:37:26.501Z,87.30
2018-12-19T03:39:52.752Z,87.30
2018-12-19T03:42:19.094Z,87.40
2018-12-19T03:44:45.381Z,87.20
2018-12-19T03:47:11.647Z,87.10
2018-12-19T03:49:38.256Z,87.20
2018-12-19T03:52:04.539Z,87.60
2018-12-19T03:54:30.977Z,87.30
2018-12-19T03:56:57.529Z,87.10
2018-12-19T03:59:23.926Z,87.10
2018-12-19T04:01:50.222Z,86.90
2018-12-19T04:04:16.489Z,86.80
2018-12-19T04:06:42.760Z,86.70
2018-12-19T04:09:09.049Z,87.00
2018-12-19T04:11:35.353Z,87.50
2018-12-19T04:14:01.620Z,87.00
2018-12-19T04:16:27.962Z,87.00
2018-12-19T04:18:54.262Z,87.00
2018-12-19T04:21:20.589Z,87.00
2018-12-19T04:23:46.871Z,86.80
2018-12-19T04:26:13.209Z,87.10
2018-12-19T04:28:39.541Z,87.20
2018-12-19T04:31:05.802Z,87.40
2018-12-19T04:33:32.099Z,87.30
2018-12-19T04:35:58.517Z,87.10
2018-12-19T04:38:25.099Z,86.90
2018-12-19T04:40:51.372Z,86.80
2018-12-19T04:43:17.677Z,87.10
2018-12-19T04:45:43.980Z,87.50
2018-12-19T04:48:10.268Z,87.60
2018-12-19T04:50:36.517Z,87.50
2018-12-19T04:53:02.873Z,88.00
2018-12-19T04:55:29.264Z,87.70
2018-12-19T04:57:55.526Z,88.00
2018-12-19T05:00:21.873Z,88.00
2018-12-19T05:02:48.153Z,88.10
2018-12-19T05:05:14.518Z,88.30
2018-12-19T05:07:40.990Z,88.40
2018-12-19T05:10:12.289Z,88.60
2018-12-19T05:12:35.698Z,88.40
2018-12-19T05:15:02.016Z,88.40
2018-12-19T05:17:28.348Z,88.30
2018-12-19T05:19:55.935Z,88.50
2018-12-19T05:22:22.241Z,88.20
2018-12-19T05:24:48.592Z,88.20
2018-12-19T05:27:14.978Z,88.30
2018-12-19T05:29:41.360Z,88.70
2018-12-19T05:32:07.685Z,88.90
2018-12-19T05:34:34.041Z,88.80
2018-12-19T05:37:00.375Z,88.70
2018-12-19T05:39:27.507Z,88.50
2018-12-19T05:41:53.799Z,88.60
2018-12-19T05:44:20.188Z,88.70
2018-12-19T05:46:46.454Z,88.70
2018-12-19T05:49:12.731Z,88.80
2018-12-19T05:51:39.038Z,88.90
2018-12-19T05:54:05.313Z,89.00
2018-12-19T05:56:31.614Z,88.90
2018-12-19T05:58:57.849Z,89.00
2018-12-19T06:01:24.114Z,89.10
2018-12-19T06:03:50.416Z,89.00
2018-12-19T06:06:16.672Z,89.00
2018-12-19T06:08:42.955Z,89.00
2018-12-19T06:11:09.236Z,89.20
2018-12-19T06:13:35.536Z,89.20
2018-12-19T06:16:01.784Z,89.20
2018-12-19T06:18:28.017Z,89.10
2018-12-19T06:20:54.319Z,89.00
2018-12-19T06:23:20.614Z,89.20
2018-12-19T06:25:46.920Z,89.60
2018-12-19T06:28:13.165Z,89.70
2018-12-19T06:30:39.420Z,90.00
2018-12-19T06:33:05.831Z,90.10
2018-12-19T06:35:32.204Z,90.10
2018-12-19T06:37:58.433Z,90.20
2018-12-19T06:40:24.699Z,90.20
2018-12-19T06:42:51.024Z,90.30
2018-12-19T06:45:17.308Z,90.30
2018-12-19T06:47:43.540Z,90.50
2018-12-19T06:50:09.841Z,90.50
2018-12-19T06:52:36.130Z,90.50
2018-12-19T06:55:02.672Z,90.50
2018-12-19T06:57:28.952Z,90.60
2018-12-19T06:59:55.283Z,90.70
2018-12-19T07:02:21.589Z,91.10
2018-12-19T07:04:47.870Z,91.20
2018-12-19T07:07:14.127Z,91.30
2018-12-19T07:09:40.421Z,91.40
2018-12-19T07:12:06.683Z,91.50
2018-12-19T07:14:33.106Z,91.60
2018-12-19T07:16:59.387Z,91.70
2018-12-19T07:19:25.622Z,91.70
2018-12-19T07:21:51.954Z,91.90
2018-12-19T07:24:18.259Z,91.90
2018-12-19T07:26:44.561Z,92.20
2018-12-19T07:29:10.822Z,92.00
2018-12-19T07:31:37.047Z,92.10
2018-12-19T07:34:03.304Z,92.10
2018-12-19T07:36:29.567Z,92.10
2018-12-19T07:38:55.834Z,92.30
2018-12-19T07:41:23.423Z,92.30
2018-12-19T07:43:49.735Z,92.30
2018-12-19T07:46:19.784Z,92.40
2018-12-19T07:48:44.351Z,92.40
2018-12-19T07:51:10.620Z,92.40
2018-12-19T07:53:37.965Z,92.50
2018-12-19T07:56:04.646Z,92.60
2018-12-19T07:58:30.950Z,92.60
2018-12-19T08:00:57.347Z,92.70
2018-12-19T08:03:23.689Z,92.70
2018-12-19T08:05:49.956Z,92.70
2018-12-19T08:08:16.231Z,92.80
2018-12-19T08:10:42.520Z,92.90
2018-12-19T08:13:08.835Z,92.80
2018-12-19T08:15:35.093Z,92.70
2018-12-19T08:18:01.370Z,92.60
2018-12-19T08:20:27.633Z,92.60
2018-12-19T08:22:53.881Z,92.70
2018-12-19T08:25:20.167Z,92.70
2018-12-19T08:27:46.440Z,92.70
2018-12-19T08:30:12.772Z,92.70
2018-12-19T08:32:39.041Z,92.70
2018-12-19T08:35:05.485Z,92.90
2018-12-19T08:37:31.751Z,93.10
2018-12-19T08:39:57.995Z,92.90
2018-12-19T08:42:24.365Z,92.90
2018-12-19T08:44:50.639Z,92.90
2018-12-19T08:47:16.926Z,92.90
2018-12-19T08:49:43.287Z,92.90
2018-12-19T08:52:09.533Z,92.90
2018-12-19T08:54:35.793Z,92.90
2018-12-19T08:57:02.070Z,92.90
2018-12-19T08:59:28.353Z,93.00
2018-12-19T09:01:54.604Z,93.00
2018-12-19T09:04:25.770Z,93.00
2018-12-19T09:06:49.255Z,93.20
2018-12-19T09:09:15.520Z,93.40
2018-12-19T09:11:41.832Z,93.40
2018-12-19T09:14:08.127Z,93.40
2018-12-19T09:16:34.415Z,93.40
2018-12-19T09:19:00.723Z,93.40
2018-12-19T09:21:26.965Z,93.40
2018-12-19T09:23:53.254Z,93.40
2018-12-19T09:26:19.511Z,93.40
2018-12-19T09:28:45.748Z,93.40
2018-12-19T09:31:12.220Z,93.40
2018-12-19T09:33:38.476Z,93.50
2018-12-19T09:36:05.922Z,93.50
2018-12-19T09:38:32.993Z,93.60
2018-12-19T09:40:59.297Z,93.60
2018-12-19T09:46:16.852Z,93.70
2018-12-19T09:48:43.129Z,93.70
2018-12-19T09:51:09.834Z,93.90
2018-12-19T09:53:36.113Z,93.90
2018-12-19T09:56:02.426Z,94.20
2018-12-19T09:58:28.684Z,93.90
2018-12-19T10:00:55.023Z,93.90
2018-12-19T10:03:21.339Z,93.90
2018-12-19T10:05:47.628Z,93.90
2018-12-19T10:08:13.918Z,93.90
2018-12-19T10:10:40.191Z,93.90
2018-12-19T10:13:06.616Z,93.90
2018-12-19T10:15:32.898Z,93.90
2018-12-19T10:17:59.226Z,94.00
2018-12-19T10:20:25.497Z,94.00
2018-12-19T10:22:53.777Z,94.00
2018-12-19T10:25:20.074Z,94.00
2018-12-19T10:27:46.292Z,94.00
2018-12-19T10:30:12.662Z,94.00
2018-12-19T10:32:40.084Z,94.00
2018-12-19T10:35:08.077Z,94.00
2018-12-19T10:37:34.338Z,94.00
2018-12-19T10:40:00.634Z,94.10
2018-12-19T10:42:26.926Z,94.10
2018-12-19T10:44:53.209Z,94.20
2018-12-19T10:47:19.444Z,94.20
2018-12-19T10:49:45.707Z,94.30
2018-12-19T10:52:12.041Z,94.30
2018-12-19T10:54:38.276Z,94.50
2018-12-19T10:57:04.564Z,94.50
2018-12-19T10:59:30.875Z,94.60
2018-12-19T11:01:57.220Z,94.60
2018-12-19T11:04:23.443Z,94.70
2018-12-19T11:06:49.708Z,94.70
2018-12-19T11:09:16.027Z,94.70
2018-12-19T11:11:42.302Z,94.70
2018-12-19T11:14:08.597Z,94.80
2018-12-19T11:16:34.893Z,95.10
2018-12-19T11:19:01.153Z,94.90
2018-12-19T11:21:27.444Z,94.90
2018-12-19T11:23:53.714Z,94.90
2018-12-19T11:26:19.956Z,95.00
2018-12-19T11:28:46.243Z,95.00
2018-12-19T11:31:12.546Z,95.10
2018-12-19T11:33:38.817Z,95.10
2018-12-19T11:36:05.088Z,95.20
2018-12-19T11:38:31.325Z,95.20
2018-12-19T11:40:57.591Z,95.10
2018-12-19T11:43:23.843Z,95.10
2018-12-19T11:45:50.126Z,95.20
2018-12-19T11:48:16.389Z,95.20
2018-12-19T11:50:42.798Z,95.20
2018-12-19T11:53:09.050Z,95.50
2018-12-19T11:55:35.300Z,95.30
2018-12-19T11:58:01.610Z,95.30
2018-12-19T12:00:27.907Z,95.30
2018-12-19T12:02:54.229Z,95.30
2018-12-19T12:05:20.477Z,95.40
2018-12-19T12:07:46.734Z,95.40
2018-12-19T12:10:13.064Z,95.40
2018-12-19T12:12:39.339Z,95.50
2018-12-19T12:15:06.167Z,95.60
2018-12-19T12:17:33.518Z,95.70
2018-12-19T12:19:59.788Z,95.60
2018-12-19T12:22:26.027Z,95.60
2018-12-19T12:24:52.412Z,95.70
2018-12-19T12:27:18.716Z,95.80
2018-12-19T12:29:44.980Z,95.80
2018-12-19T12:32:11.272Z,95.80
2018-12-19T12:34:37.574Z,95.80
2018-12-19T12:37:03.923Z,95.80
2018-12-19T12:39:30.187Z,95.80
2018-12-19T12:41:56.470Z,95.80
2018-12-19T12:44:22.767Z,95.90
2018-12-19T12:46:49.046Z,95.90
2018-12-19T12:49:15.333Z,95.90
2018-12-19T12:51:41.617Z,95.90
2018-12-19T12:54:07.848Z,96.00
2018-12-19T12:56:34.117Z,96.00
2018-12-19T12:59:00.397Z,96.00
2018-12-19T13:01:26.700Z,96.10
2018-12-19T13:03:52.981Z,96.10
2018-12-19T13:06:19.220Z,96.20
2018-12-19T13:08:45.545Z,96.20
2018-12-19T13:11:11.826Z,96.20
2018-12-19T13:13:38.110Z,96.30
2018-12-19T13:16:04.379Z,96.20
2018-12-19T13:18:30.600Z,96.30
2018-12-19T13:20:56.957Z,96.40
2018-12-19T13:23:23.263Z,96.50
2018-12-19T13:25:49.575Z,96.50
2018-12-19T13:28:15.837Z,96.60
2018-12-19T13:30:42.147Z,96.60
2018-12-19T13:33:08.456Z,96.70
2018-12-19T13:35:34.715Z,96.70
2018-12-19T13:38:00.977Z,96.70
2018-12-19T13:40:27.238Z,96.70
2018-12-19T13:42:53.533Z,96.80
2018-12-19T13:45:19.792Z,96.80
2018-12-19T13:47:46.055Z,96.80
2018-12-19T13:50:12.387Z,96.90
2018-12-19T13:52:38.597Z,96.80
2018-12-19T13:55:04.844Z,96.90
2018-12-19T13:57:31.114Z,96.90
2018-12-19T13:59:57.411Z,96.90
2018-12-19T14:02:23.668Z,96.90
2018-12-19T14:04:50.097Z,96.90
2018-12-19T14:07:16.359Z,96.90
2018-12-19T14:09:42.656Z,96.90
2018-12-19T14:12:12.332Z,96.90
2018-12-19T14:14:37.252Z,97.00
2018-12-19T14:17:03.594Z,96.90
2018-12-19T14:19:29.828Z,97.00
2018-12-19T14:21:56.182Z,97.00
2018-12-19T14:24:22.493Z,97.00
2018-12-19T14:26:48.780Z,97.00
2018-12-19T14:29:15.064Z,97.00
2018-12-19T14:31:41.372Z,97.00
2018-12-19T14:34:07.680Z,97.00
2018-12-19T14:36:33.989Z,97.00
2018-12-19T14:39:00.272Z,97.00
2018-12-19T14:41:26.581Z,97.00
2018-12-19T14:43:52.869Z,97.00
2018-12-19T14:46:19.094Z,97.00
2018-12-19T14:48:45.385Z,97.00
2018-12-19T14:51:11.802Z,97.00
2018-12-19T14:53:38.098Z,97.00
2018-12-19T14:56:04.402Z,97.00
2018-12-19T14:58:30.666Z,97.00
2018-12-19T15:00:56.973Z,97.00
2018-12-19T15:03:23.201Z,97.00
2018-12-19T15:05:49.512Z,97.00
2018-12-19T15:08:15.869Z,97.10
2018-12-19T15:10:42.279Z,97.10
2018-12-19T15:13:08.555Z,97.10
2018-12-19T15:15:34.861Z,97.10
2018-12-19T15:18:01.200Z,97.10
2018-12-19T15:20:27.469Z,97.10
2018-12-19T15:22:53.834Z,97.10
2018-12-19T15:25:20.154Z,97.00
2018-12-19T15:27:46.436Z,97.00
2018-12-19T15:30:12.718Z,97.00
2018-12-19T15:32:39.211Z,97.00
2018-12-19T15:35:05.724Z,97.10
2018-12-19T15:37:31.997Z,97.10
2018-12-19T15:39:58.315Z,97.10
2018-12-19T15:42:24.591Z,97.10
2018-12-19T15:44:50.840Z,97.10
2018-12-19T15:47:17.088Z,97.10
2018-12-19T15:49:43.357Z,97.10
2018-12-19T15:52:09.588Z,97.30
2018-12-19T15:54:35.836Z,97.10
2018-12-19T15:57:02.817Z,97.10
2018-12-19T15:59:29.207Z,97.10
2018-12-19T16:01:55.518Z,97.10
2018-12-19T16:04:21.785Z,97.10
2018-12-19T16:06:48.172Z,97.10
2018-12-19T16:09:14.459Z,97.10
2018-12-19T16:11:40.718Z,97.10
2018-12-19T16:14:06.994Z,97.00
2018-12-19T16:16:33.265Z,97.00
2018-12-19T16:18:59.581Z,97.00
2018-12-19T16:21:25.840Z,97.00
2018-12-19T16:23:52.183Z,97.00
2018-12-19T16:26:18.483Z,97.00
2018-12-19T16:28:44.792Z,96.90
2018-12-19T16:31:11.104Z,96.90
2018-12-19T16:33:37.406Z,96.90
2018-12-19T16:36:03.751Z,96.90
2018-12-19T16:38:30.057Z,96.90
2018-12-19T16:40:56.368Z,96.90
2018-12-19T16:43:22.770Z,97.00
2018-12-19T16:45:49.064Z,96.90
2018-12-19T16:48:15.296Z,96.90
2018-12-19T16:50:41.684Z,96.90
2018-12-19T16:53:08.574Z,97.10
2018-12-19T16:55:34.878Z,96.90
2018-12-19T16:58:01.185Z,96.90
2018-12-19T17:00:27.629Z,96.80
2018-12-19T17:02:53.996Z,96.80
2018-12-19T17:05:20.383Z,96.90
2018-12-19T17:07:46.740Z,97.00
2018-12-19T17:10:13.022Z,97.00
2018-12-19T17:12:39.329Z,97.00
2018-12-19T17:15:05.666Z,97.00
2018-12-19T17:17:32.014Z,96.90
2018-12-19T17:19:58.407Z,97.00
2018-12-19T17:22:24.720Z,97.00
2018-12-19T17:24:50.969Z,97.00
2018-12-19T17:27:17.460Z,96.80
2018-12-19T17:29:43.725Z,96.60
2018-12-19T17:32:10.134Z,96.60
2018-12-19T17:34:36.452Z,96.60
2018-12-19T17:37:02.750Z,96.70
2018-12-19T17:39:29.020Z,96.70
2018-12-19T17:41:55.318Z,96.60
2018-12-19T17:44:21.616Z,96.60
2018-12-19T17:46:48.023Z,96.70
2018-12-19T17:49:14.330Z,96.70
2018-12-19T17:51:40.556Z,96.70
2018-12-19T17:54:06.829Z,96.70
2018-12-19T17:56:33.137Z,96.80
2018-12-19T17:58:59.399Z,96.80
2018-12-19T18:01:25.822Z,96.70
2018-12-19T18:03:52.215Z,96.80
2018-12-19T18:06:18.476Z,96.80
2018-12-19T18:08:44.821Z,96.80
2018-12-19T18:11:11.113Z,96.90
2018-12-19T18:13:37.422Z,97.00
2018-12-19T18:16:03.764Z,97.10
2018-12-19T18:18:30.049Z,97.10
2018-12-19T18:20:56.363Z,97.10
2018-12-19T18:23:22.644Z,97.10
2018-12-19T18:25:48.901Z,97.10
2018-12-19T18:28:15.199Z,97.20
2018-12-19T18:30:41.464Z,97.10
2018-12-19T18:33:07.725Z,97.00
2018-12-19T18:35:34.089Z,97.00
2018-12-19T18:38:00.465Z,96.90
2018-12-19T18:40:26.750Z,97.00
2018-12-19T18:42:53.042Z,96.80
2018-12-19T18:45:19.314Z,96.80
2018-12-19T18:47:45.581Z,96.80
2018-12-19T18:50:11.860Z,96.70
2018-12-19T18:52:38.124Z,96.70
2018-12-19T18:55:05.976Z,96.80
2018-12-19T18:57:32.243Z,96.70
2018-12-19T18:59:59.208Z,96.80
2018-12-19T19:02:25.530Z,96.80
2018-12-19T19:04:51.832Z,96.90
2018-12-19T19:07:18.215Z,96.70
2018-12-19T19:09:44.554Z,96.70
2018-12-19T19:12:10.888Z,96.70
2018-12-19T19:14:37.190Z,96.70
2018-12-19T19:17:03.500Z,96.60
2018-12-19T19:19:29.904Z,96.60
2018-12-19T19:21:56.183Z,96.70
2018-12-19T19:24:22.472Z,96.70
2018-12-19T19:26:48.684Z,96.80
2018-12-19T19:29:14.960Z,96.70
2018-12-19T19:31:41.228Z,96.70
2018-12-19T19:34:07.517Z,96.80
2018-12-19T19:36:33.930Z,96.80
2018-12-19T19:39:00.187Z,96.80
2018-12-19T19:41:26.501Z,96.70
2018-12-19T19:43:52.765Z,96.80
2018-12-19T19:46:19.035Z,96.70
2018-12-19T19:48:45.291Z,96.70
2018-12-19T19:51:16.884Z,96.70
2018-12-19T19:53:39.954Z,96.70
2018-12-19T19:56:06.304Z,96.70
2018-12-19T19:58:32.584Z,96.60
2018-12-19T20:00:58.889Z,96.60
2018-12-19T20:03:25.218Z,96.60
2018-12-19T20:05:51.544Z,96.60
2018-12-19T20:08:17.833Z,96.50
2018-12-19T20:10:44.164Z,96.40
2018-12-19T20:13:10.406Z,96.50
2018-12-19T20:15:36.670Z,96.50
2018-12-19T20:18:03.084Z,96.50
2018-12-19T20:20:29.322Z,96.50
2018-12-19T20:22:55.591Z,96.70
2018-12-19T20:25:21.834Z,96.40
2018-12-19T20:27:48.125Z,96.40
2018-12-19T20:30:14.395Z,96.30
2018-12-19T20:32:40.728Z,96.30
2018-12-19T20:35:07.198Z,96.30
2018-12-19T20:37:33.413Z,96.30
2018-12-19T20:39:59.649Z,96.20
2018-12-19T20:42:25.924Z,96.20
2018-12-19T20:44:52.206Z,96.10
2018-12-19T20:47:18.552Z,96.20
2018-12-19T20:49:44.954Z,96.10
2018-12-19T20:52:11.259Z,96.20
2018-12-19T20:54:37.563Z,96.10
2018-12-19T20:57:03.842Z,96.00
2018-12-19T20:59:30.141Z,96.00
2018-12-19T21:01:56.504Z,96.00
2018-12-19T21:04:22.772Z,95.90
2018-12-19T21:06:49.099Z,96.00
2018-12-19T21:09:15.640Z,96.10
2018-12-19T21:11:42.050Z,96.20
2018-12-19T21:14:08.327Z,96.10
2018-12-19T21:16:40.691Z,96.10
2018-12-19T21:19:07.147Z,96.10
2018-12-19T21:21:33.431Z,96.00
2018-12-19T21:23:59.724Z,96.30
2018-12-19T21:26:26.012Z,96.10
2018-12-19T21:28:52.340Z,96.10
2018-12-19T21:31:18.630Z,96.10
2018-12-19T21:33:44.948Z,96.10
2018-12-19T21:36:11.273Z,96.10
2018-12-19T21:38:39.081Z,96.00
2018-12-19T21:41:07.661Z,96.10
2018-12-19T21:43:34.515Z,95.90
2018-12-19T21:46:01.276Z,95.90
2018-12-19T21:48:27.950Z,95.90
2018-12-19T21:50:54.275Z,96.00
2018-12-19T21:53:20.828Z,96.00
2018-12-19T21:55:47.561Z,95.90
2018-12-19T21:58:14.156Z,95.90
2018-12-19T22:00:40.656Z,95.90
2018-12-19T22:03:07.001Z,95.90
2018-12-19T22:05:34.024Z,96.00
2018-12-19T22:08:00.511Z,95.80
2018-12-19T22:10:26.960Z,95.80
2018-12-19T22:12:53.319Z,95.80
2018-12-19T22:15:19.601Z,95.80
2018-12-19T22:17:46.994Z,95.90
2018-12-19T22:20:13.460Z,95.90
2018-12-19T22:22:39.822Z,96.00
2018-12-19T22:25:06.139Z,96.00
2018-12-19T22:27:32.442Z,96.20
2018-12-19T22:29:58.803Z,96.20
2018-12-19T22:32:25.388Z,95.90
2018-12-19T22:34:51.678Z,95.70
2018-12-19T22:37:17.991Z,95.60
2018-12-19T22:39:44.290Z,95.50
2018-12-19T22:42:10.670Z,95.50
2018-12-19T22:44:37.129Z,95.60
2018-12-19T22:47:03.463Z,95.60
2018-12-19T22:49:29.753Z,95.40
2018-12-19T22:51:56.137Z,95.50
2018-12-19T22:54:22.376Z,95.40
2018-12-19T22:56:48.692Z,95.30
2018-12-19T22:59:15.049Z,95.40
2018-12-19T23:01:47.255Z,95.50
2018-12-19T23:04:13.681Z,95.30
2018-12-19T23:06:40.141Z,95.20
2018-12-19T23:09:06.590Z,95.10
2018-12-19T23:11:33.044Z,95.10
2018-12-19T23:13:59.426Z,94.90
2018-12-19T23:16:25.766Z,94.90
2018-12-19T23:18:52.297Z,94.90
2018-12-19T23:21:18.646Z,95.00
2018-12-19T23:23:45.127Z,94.80
2018-12-19T23:26:11.375Z,94.70
2018-12-19T23:28:38.007Z,94.60
2018-12-19T23:31:04.544Z,94.50
2018-12-19T23:33:30.936Z,94.40
2018-12-19T23:35:57.268Z,94.40
2018-12-19T23:38:23.628Z,94.40
2018-12-19T23:40:50.121Z,94.40
2018-12-19T23:43:16.365Z,94.40
2018-12-19T23:45:42.631Z,94.30
2018-12-19T23:48:08.951Z,94.30
2018-12-19T23:50:35.208Z,94.30
2018-12-19T23:53:01.518Z,94.50
2018-12-19T23:55:27.878Z,94.80
2018-12-19T23:57:54.318Z,94.80
